Time;durP1;ratioP1;P1;durP2;ratioP2;P2;SDS_P1;SDS_P2;PMS_P1;PMS_P2;Temp;Humidity;BMP_temperature;BMP_pressure;BME280_temperature;BME280_humidity;BME280_pressure;Samples;Min_cycle;Max_cycle;Signal;HPM_P1;HPM_P2
2023/03/04 00:00:46;;;;;;;13.85;6.50;;;6.20;99.90;;;;;;5092917;28;20536;-69
2023/03/04 00:03:14;;;;;;;10.70;7.22;;;6.20;99.90;;;;;;5091988;28;20160;-70
2023/03/04 00:05:40;;;;;;;13.60;6.88;;;6.20;99.90;;;;;;5091831;28;20175;-69
2023/03/04 00:08:06;;;;;;;14.32;6.43;;;6.20;99.90;;;;;;5091768;28;20669;-69
2023/03/04 00:10:32;;;;;;;12.40;6.90;;;6.20;99.90;;;;;;5092956;28;20329;-69
2023/03/04 00:12:58;;;;;;;10.35;6.80;;;6.20;99.90;;;;;;5091722;28;20438;-69
2023/03/04 00:15:24;;;;;;;13.70;6.57;;;6.20;99.90;;;;;;5093102;28;20160;-69
2023/03/04 00:17:50;;;;;;;12.97;6.47;;;6.20;99.90;;;;;;5075029;28;20503;-70
2023/03/04 00:20:16;;;;;;;10.13;5.70;;;6.20;99.90;;;;;;5093038;28;20859;-69
2023/03/04 00:22:42;;;;;;;8.65;5.70;;;6.20;99.90;;;;;;5093511;28;20161;-69
2023/03/04 00:25:11;;;;;;;10.15;6.68;;;6.20;99.90;;;;;;5091615;28;20217;-69
2023/03/04 00:27:36;;;;;;;11.47;6.33;;;6.20;99.90;;;;;;5081406;28;20208;-69
2023/03/04 00:30:09;;;;;;;9.60;5.72;;;6.20;99.90;;;;;;5075431;28;20492;-69
2023/03/04 00:32:35;;;;;;;10.52;5.72;;;6.20;99.90;;;;;;5091499;28;20573;-69
2023/03/04 00:35:03;;;;;;;11.23;6.20;;;6.20;99.90;;;;;;5092644;28;20161;-69
2023/03/04 00:37:32;;;;;;;11.93;5.43;;;6.20;99.90;;;;;;5091786;28;20603;-69
2023/03/04 00:40:00;;;;;;;7.68;5.85;;;6.20;99.90;;;;;;5091656;28;20162;-69
2023/03/04 00:42:26;;;;;;;10.40;6.25;;;6.10;99.90;;;;;;5091600;28;20616;-69
2023/03/04 00:44:57;;;;;;;10.27;6.35;;;6.20;99.90;;;;;;5091547;28;20719;-69
2023/03/04 00:47:23;;;;;;;8.90;5.68;;;6.20;99.90;;;;;;5091441;28;20259;-69
2023/03/04 00:49:54;;;;;;;12.15;4.97;;;6.20;99.90;;;;;;5075064;28;20245;-69
2023/03/04 00:52:20;;;;;;;9.63;6.10;;;6.20;99.90;;;;;;5058078;28;20200;-69
2023/03/04 00:54:46;;;;;;;9.27;5.35;;;6.20;99.90;;;;;;5091466;28;20254;-69
2023/03/04 00:57:11;;;;;;;9.70;5.50;;;6.20;99.90;;;;;;5092496;28;20271;-69
2023/03/04 00:59:38;;;;;;;8.88;4.97;;;6.20;99.90;;;;;;5091253;28;20411;-69
2023/03/04 01:02:04;;;;;;;7.90;4.67;;;6.20;99.90;;;;;;5092590;28;20164;-69
2023/03/04 01:04:35;;;;;;;8.40;4.85;;;6.20;99.90;;;;;;5091296;28;20495;-69
2023/03/04 01:07:03;;;;;;;8.93;5.10;;;6.20;99.90;;;;;;5074543;28;20183;-70
2023/03/04 01:09:29;;;;;;;12.32;5.43;;;6.20;99.90;;;;;;5094071;28;20210;-69
2023/03/04 01:11:55;;;;;;;8.98;4.80;;;6.20;99.90;;;;;;5096509;28;20225;-69
2023/03/04 01:14:21;;;;;;;10.68;4.75;;;6.20;99.90;;;;;;5095289;28;20193;-69
2023/03/04 01:16:47;;;;;;;9.33;5.20;;;6.20;99.90;;;;;;5078540;28;20708;-69
2023/03/04 01:19:15;;;;;;;7.10;4.15;;;6.20;99.90;;;;;;5061969;28;20441;-69
2023/03/04 01:21:43;;;;;;;10.93;5.20;;;6.20;99.90;;;;;;5095207;28;20161;-69
2023/03/04 01:24:12;;;;;;;9.65;5.40;;;6.20;99.90;;;;;;5095405;28;20679;-69
2023/03/04 01:26:39;;;;;;;8.10;4.93;;;6.20;99.90;;;;;;5095247;28;20168;-69
2023/03/04 01:29:06;;;;;;;5.87;4.03;;;6.20;99.90;;;;;;5094454;28;20441;-69
2023/03/04 01:31:40;;;;;;;11.55;4.60;;;6.20;99.90;;;;;;5095677;28;20450;-69
2023/03/04 01:34:08;;;;;;;7.95;4.65;;;6.20;99.90;;;;;;5074734;28;20173;-69
2023/03/04 01:36:35;;;;;;;10.20;4.45;;;6.20;99.90;;;;;;5074699;28;20153;-69
2023/03/04 01:39:09;;;;;;;11.30;5.05;;;6.20;99.90;;;;;;5075958;28;20211;-69
2023/03/04 01:41:41;;;;;;;4.38;3.58;;;6.20;99.90;;;;;;5075723;28;20165;-69
2023/03/04 01:44:09;;;;;;;7.18;4.80;;;6.20;99.90;;;;;;5074661;28;20208;-69
2023/03/04 01:46:36;;;;;;;11.77;4.35;;;6.20;99.90;;;;;;5075730;28;20223;-69
2023/03/04 01:49:08;;;;;;;6.90;3.95;;;6.20;99.90;;;;;;5078282;28;20205;-69
2023/03/04 01:51:37;;;;;;;8.30;3.95;;;6.20;99.90;;;;;;5095675;28;20160;-70
2023/03/04 01:54:03;;;;;;;8.70;4.40;;;6.20;99.90;;;;;;5077401;28;20265;-69
2023/03/04 01:56:33;;;;;;;10.23;4.63;;;6.20;99.90;;;;;;5094591;28;20300;-69
2023/03/04 01:59:19;;;;;;;8.52;5.30;;;6.20;99.90;;;;;;5095819;28;20458;-69
2023/03/04 02:01:55;;;;;;;9.90;4.10;;;6.20;99.90;;;;;;5078308;28;20227;-69
2023/03/04 02:04:33;;;;;;;9.82;4.32;;;6.20;99.90;;;;;;5095807;28;21046;-69
2023/03/04 02:07:02;;;;;;;6.60;4.00;;;6.20;99.90;;;;;;5094408;28;20335;-69
2023/03/04 02:09:30;;;;;;;10.75;4.90;;;6.20;99.90;;;;;;5077686;28;20237;-69
2023/03/04 02:11:56;;;;;;;10.38;4.60;;;6.20;99.90;;;;;;5094378;28;20211;-69
2023/03/04 02:14:25;;;;;;;12.57;4.45;;;6.20;99.90;;;;;;5095772;28;20582;-69
2023/03/04 02:16:51;;;;;;;7.55;4.05;;;6.20;99.90;;;;;;5061140;28;20614;-69
2023/03/04 02:19:39;;;;;;;8.05;4.35;;;6.20;99.90;;;;;;5094283;28;20196;-69
2023/03/04 02:22:07;;;;;;;6.80;3.58;;;6.20;99.90;;;;;;5076497;28;20779;-69
2023/03/04 02:24:54;;;;;;;8.20;5.50;;;6.20;99.90;;;;;;5060887;28;20176;-69
2023/03/04 02:27:20;;;;;;;9.10;4.05;;;6.20;99.90;;;;;;5077439;28;20256;-69
2023/03/04 02:29:49;;;;;;;5.93;3.97;;;6.20;99.90;;;;;;5077365;28;20209;-69
2023/03/04 02:32:18;;;;;;;15.60;4.30;;;6.20;99.90;;;;;;5093896;28;20188;-69
2023/03/04 02:34:51;;;;;;;8.27;3.75;;;6.20;99.90;;;;;;5077314;28;20175;-69
2023/03/04 02:37:20;;;;;;;6.45;3.70;;;6.20;99.90;;;;;;5095337;28;20195;-69
2023/03/04 02:39:49;;;;;;;7.57;3.33;;;6.20;99.90;;;;;;5077591;28;20219;-69
2023/03/04 02:42:17;;;;;;;8.10;3.80;;;6.20;99.90;;;;;;5077311;28;20606;-69
2023/03/04 02:44:47;;;;;;;6.80;3.80;;;6.20;99.90;;;;;;5077307;28;20421;-69
2023/03/04 02:47:18;;;;;;;9.60;3.70;;;6.20;99.90;;;;;;5073601;28;20172;-69
2023/03/04 02:49:50;;;;;;;6.60;2.80;;;6.20;99.90;;;;;;5073596;28;20231;-69
2023/03/04 02:52:22;;;;;;;8.32;4.10;;;6.20;99.90;;;;;;5040201;28;20210;-69
2023/03/04 02:54:50;;;;;;;6.85;3.45;;;6.20;99.90;;;;;;5056827;28;20181;-69
2023/03/04 02:57:17;;;;;;;7.07;3.35;;;6.20;99.90;;;;;;5073242;28;20184;-69
2023/03/04 02:59:51;;;;;;;7.25;3.45;;;6.20;99.90;;;;;;5073512;28;20259;-69
2023/03/04 03:02:25;;;;;;;8.25;3.65;;;6.20;99.90;;;;;;5078693;28;20219;-69
2023/03/04 03:04:58;;;;;;;8.52;3.30;;;6.20;99.90;;;;;;5093635;28;20527;-69
2023/03/04 03:07:30;;;;;;;6.15;3.83;;;6.20;99.90;;;;;;5093110;28;20256;-69
2023/03/04 03:09:58;;;;;;;9.73;3.88;;;6.20;99.90;;;;;;5092785;28;20686;-70
2023/03/04 03:12:24;;;;;;;9.73;3.47;;;6.20;99.90;;;;;;5093464;28;20222;-69
2023/03/04 03:14:50;;;;;;;11.80;3.97;;;6.20;99.90;;;;;;5094529;28;20403;-69
2023/03/04 03:17:19;;;;;;;9.27;3.37;;;6.20;99.90;;;;;;5093086;28;20508;-69
2023/03/04 03:19:48;;;;;;;9.25;3.25;;;6.20;99.90;;;;;;5073731;28;20429;-69
2023/03/04 03:22:15;;;;;;;6.25;3.90;;;6.20;99.90;;;;;;5060811;28;20184;-69
2023/03/04 03:24:41;;;;;;;15.77;4.72;;;6.20;99.90;;;;;;5093256;28;20730;-69
2023/03/04 03:27:11;;;;;;;13.15;4.43;;;6.20;99.90;;;;;;5093568;28;20222;-69
2023/03/04 03:29:45;;;;;;;6.15;3.40;;;6.20;99.90;;;;;;5093325;28;20200;-69
2023/03/04 03:32:11;;;;;;;8.30;4.03;;;6.20;99.90;;;;;;5092988;28;20161;-69
2023/03/04 03:34:37;;;;;;;8.80;3.35;;;6.20;99.90;;;;;;5094236;28;20812;-69
2023/03/04 03:37:05;;;;;;;7.00;3.72;;;6.20;99.90;;;;;;5076072;28;20166;-69
2023/03/04 03:39:35;;;;;;;12.33;3.53;;;6.20;99.90;;;;;;5092958;28;20244;-69
2023/03/04 03:42:04;;;;;;;9.95;3.67;;;6.20;99.90;;;;;;5075775;28;20419;-69
2023/03/04 03:44:30;;;;;;;10.73;3.90;;;6.20;99.90;;;;;;5093905;28;20627;-69
2023/03/04 03:46:59;;;;;;;19.00;4.15;;;6.20;99.90;;;;;;5075906;28;20303;-69
2023/03/04 03:49:25;;;;;;;7.00;3.70;;;6.20;99.90;;;;;;5093508;28;20207;-69
2023/03/04 03:51:56;;;;;;;7.30;3.30;;;6.20;99.90;;;;;;5092583;28;20168;-69
2023/03/04 03:54:24;;;;;;;14.40;3.63;;;6.20;99.90;;;;;;5093252;28;20165;-69
2023/03/04 03:56:53;;;;;;;9.25;3.50;;;6.20;99.90;;;;;;5079673;28;20187;-69
2023/03/04 03:59:19;;;;;;;9.00;4.10;;;6.20;99.90;;;;;;5092602;28;20215;-69
2023/03/04 04:01:49;;;;;;;10.73;3.97;;;6.20;99.90;;;;;;5092853;28;20180;-69
2023/03/04 04:04:20;;;;;;;8.55;4.15;;;6.20;99.90;;;;;;5093487;28;20180;-68
2023/03/04 04:06:46;;;;;;;5.88;3.15;;;6.30;99.90;;;;;;5091712;28;20164;-68
2023/03/04 04:09:12;;;;;;;6.30;2.97;;;6.30;99.90;;;;;;5091223;28;20555;-69
2023/03/04 04:11:40;;;;;;;9.20;3.67;;;6.20;99.90;;;;;;5092459;28;20898;-69
2023/03/04 04:14:12;;;;;;;9.30;3.50;;;6.20;99.90;;;;;;5091113;28;20180;-69
2023/03/04 04:16:38;;;;;;;6.85;3.30;;;6.20;99.90;;;;;;5053910;28;20460;-69
2023/03/04 04:19:07;;;;;;;9.55;3.78;;;6.30;99.90;;;;;;5078940;28;20250;-69
2023/03/04 04:21:33;;;;;;;4.60;2.80;;;6.30;99.90;;;;;;5091181;28;20165;-69
2023/03/04 04:23:59;;;;;;;7.27;3.13;;;6.30;99.90;;;;;;5070206;28;20441;-68
2023/03/04 04:26:27;;;;;;;8.20;3.20;;;6.20;99.90;;;;;;5070910;28;20421;-68
2023/03/04 04:28:55;;;;;;;5.15;2.70;;;6.30;99.90;;;;;;5086897;28;20503;-68
2023/03/04 04:31:26;;;;;;;7.32;3.28;;;6.30;99.90;;;;;;5069881;28;20571;-68
2023/03/04 04:33:52;;;;;;;8.50;3.20;;;6.30;99.90;;;;;;5090171;28;20225;-69
2023/03/04 04:36:20;;;;;;;8.10;3.53;;;6.20;99.90;;;;;;5091077;28;20284;-68
2023/03/04 04:38:48;;;;;;;9.00;3.20;;;6.20;99.90;;;;;;5070671;28;20518;-68
2023/03/04 04:41:20;;;;;;;6.68;3.65;;;6.20;99.90;;;;;;5056883;28;20446;-69
2023/03/04 04:43:48;;;;;;;6.60;3.20;;;6.30;99.90;;;;;;5086966;28;20209;-68
2023/03/04 04:46:15;;;;;;;8.80;3.72;;;6.30;99.90;;;;;;5091828;28;20171;-69
2023/03/04 04:48:46;;;;;;;6.57;3.70;;;6.30;99.90;;;;;;5053832;28;20210;-69
2023/03/04 04:51:15;;;;;;;6.80;3.45;;;6.20;99.90;;;;;;5075943;28;20204;-68
2023/03/04 04:53:46;;;;;;;7.57;3.20;;;6.30;99.90;;;;;;5079556;28;20207;-69
2023/03/04 04:56:18;;;;;;;9.10;4.13;;;6.30;99.90;;;;;;5058981;28;20420;-69
2023/03/04 04:58:45;;;;;;;7.93;3.60;;;6.30;99.90;;;;;;5091318;28;20684;-69
2023/03/04 05:01:14;;;;;;;10.60;3.53;;;6.30;99.90;;;;;;5090531;28;20164;-68
2023/03/04 05:03:40;;;;;;;7.07;3.57;;;6.30;99.90;;;;;;5090741;28;20268;-68
2023/03/04 05:06:10;;;;;;;6.95;3.47;;;6.30;99.90;;;;;;5090828;28;20447;-69
2023/03/04 05:08:38;;;;;;;9.32;3.40;;;6.30;99.90;;;;;;5070073;28;20226;-69
2023/03/04 05:11:05;;;;;;;3.88;2.70;;;6.30;99.90;;;;;;5086812;28;20223;-69
2023/03/04 05:13:31;;;;;;;5.75;3.10;;;6.30;99.90;;;;;;5092047;28;20160;-69
2023/03/04 05:15:58;;;;;;;7.32;3.13;;;6.30;99.90;;;;;;5091481;28;20178;-68
2023/03/04 05:18:28;;;;;;;5.85;3.83;;;6.30;99.90;;;;;;5090491;28;20327;-69
2023/03/04 05:20:59;;;;;;;4.90;3.00;;;6.30;99.90;;;;;;5073380;28;20188;-69
2023/03/04 05:23:27;;;;;;;11.75;3.42;;;6.30;99.90;;;;;;5087870;28;20443;-69
2023/03/04 05:25:55;;;;;;;7.80;3.03;;;6.30;99.90;;;;;;5090255;28;20180;-69
2023/03/04 05:28:21;;;;;;;9.43;3.00;;;6.20;99.90;;;;;;5090469;28;20199;-68
2023/03/04 05:30:48;;;;;;;8.65;3.38;;;6.30;99.90;;;;;;5090023;28;20198;-68
2023/03/04 05:33:15;;;;;;;7.90;3.63;;;6.20;99.90;;;;;;5090281;28;20662;-68
2023/03/04 05:35:42;;;;;;;6.60;3.30;;;6.20;99.90;;;;;;5090506;28;20403;-69
2023/03/04 05:38:11;;;;;;;7.47;3.63;;;6.20;99.90;;;;;;5090171;28;20427;-68
2023/03/04 05:40:43;;;;;;;8.77;3.45;;;6.20;99.90;;;;;;5053676;28;20295;-68
2023/03/04 05:43:12;;;;;;;7.10;3.00;;;6.20;99.90;;;;;;5087608;28;20178;-68
2023/03/04 05:45:38;;;;;;;6.80;3.37;;;6.20;99.90;;;;;;5089100;28;20262;-69
2023/03/04 05:48:07;;;;;;;6.68;3.42;;;6.20;99.90;;;;;;5091222;28;20447;-68
2023/03/04 05:50:34;;;;;;;6.38;2.90;;;6.20;99.90;;;;;;5089888;28;20188;-68
2023/03/04 05:53:00;;;;;;;8.05;2.80;;;6.30;99.90;;;;;;5090036;28;20249;-68
2023/03/04 05:55:31;;;;;;;6.57;2.50;;;6.20;99.90;;;;;;5073053;28;20272;-69
2023/03/04 05:57:57;;;;;;;5.65;2.88;;;6.30;99.90;;;;;;5093645;28;20243;-69
2023/03/04 06:00:24;;;;;;;9.77;4.53;;;6.30;99.90;;;;;;5092720;28;20205;-68
2023/03/04 06:02:52;;;;;;;15.05;3.70;;;6.30;99.90;;;;;;5092956;28;20442;-68
2023/03/04 06:05:19;;;;;;;4.60;3.00;;;6.30;99.90;;;;;;5094723;28;20284;-68
2023/03/04 06:07:47;;;;;;;8.95;3.13;;;6.30;99.90;;;;;;5076026;28;20478;-68
2023/03/04 06:10:17;;;;;;;4.33;2.20;;;6.30;99.90;;;;;;5094281;28;20327;-69
2023/03/04 06:12:43;;;;;;;6.13;2.50;;;6.30;99.90;;;;;;5093226;28;20435;-69
2023/03/04 06:15:12;;;;;;;6.30;2.63;;;6.30;99.90;;;;;;5092610;28;20221;-69
2023/03/04 06:17:41;;;;;;;5.40;2.88;;;6.30;99.90;;;;;;5093133;28;20973;-69
2023/03/04 06:20:08;;;;;;;6.45;2.72;;;6.30;99.90;;;;;;5076296;28;20176;-69
2023/03/04 06:22:36;;;;;;;7.22;3.38;;;6.30;99.90;;;;;;5074010;28;20192;-68
2023/03/04 06:25:06;;;;;;;5.47;2.70;;;6.30;99.90;;;;;;5094401;28;20184;-68
2023/03/04 06:27:34;;;;;;;6.70;2.90;;;6.30;99.90;;;;;;5094442;28;20629;-69
2023/03/04 06:30:05;;;;;;;7.80;2.65;;;6.30;99.90;;;;;;5094128;28;20216;-68
2023/03/04 06:32:31;;;;;;;5.97;2.50;;;6.30;99.90;;;;;;5092335;28;20250;-68
2023/03/04 06:34:58;;;;;;;4.87;2.90;;;6.30;99.90;;;;;;5068491;28;20697;-68
2023/03/04 06:37:26;;;;;;;6.65;2.67;;;6.30;99.90;;;;;;5076568;28;20822;-68
2023/03/04 06:39:59;;;;;;;8.43;4.45;;;6.30;99.90;;;;;;5092973;28;20510;-69
2023/03/04 06:42:25;;;;;;;4.85;2.10;;;6.30;99.90;;;;;;5076086;28;20243;-68
2023/03/04 06:44:53;;;;;;;6.13;2.80;;;6.30;99.90;;;;;;5093980;28;20211;-68
2023/03/04 06:47:20;;;;;;;4.53;2.63;;;6.30;99.90;;;;;;5093026;28;20198;-69
2023/03/04 06:49:51;;;;;;;8.20;2.75;;;6.30;99.90;;;;;;5075759;28;20204;-69
2023/03/04 06:52:20;;;;;;;7.03;2.60;;;6.30;99.90;;;;;;5092572;28;20677;-69
2023/03/04 06:54:48;;;;;;;10.48;2.42;;;6.30;99.90;;;;;;5084799;28;20185;-69
2023/03/04 06:57:14;;;;;;;8.50;3.30;;;6.30;99.90;;;;;;5075633;28;20189;-69
2023/03/04 06:59:40;;;;;;;5.37;2.50;;;6.30;99.90;;;;;;5092453;28;20457;-69
2023/03/04 07:02:09;;;;;;;4.10;2.10;;;6.30;99.90;;;;;;5092519;28;20425;-68
2023/03/04 07:04:35;;;;;;;5.10;3.00;;;6.30;99.90;;;;;;5091737;28;20439;-69
2023/03/04 07:07:01;;;;;;;4.27;2.30;;;6.30;99.90;;;;;;5092809;28;20399;-70
2023/03/04 07:09:27;;;;;;;5.17;2.67;;;6.30;99.90;;;;;;5092069;28;20452;-69
2023/03/04 07:11:55;;;;;;;4.93;2.15;;;6.30;99.90;;;;;;5091868;28;20464;-69
2023/03/04 07:14:24;;;;;;;6.63;2.25;;;6.30;99.90;;;;;;5092676;28;20201;-71
2023/03/04 07:16:50;;;;;;;6.30;2.50;;;6.30;99.90;;;;;;5092405;28;20162;-69
2023/03/04 07:19:19;;;;;;;3.50;2.30;;;6.30;99.90;;;;;;5090933;28;20205;-68
2023/03/04 07:21:48;;;;;;;7.70;2.40;;;6.30;99.90;;;;;;5075037;28;20415;-69
2023/03/04 07:24:16;;;;;;;4.63;2.40;;;6.30;99.90;;;;;;5074136;28;20442;-69
2023/03/04 07:26:47;;;;;;;6.38;2.80;;;6.30;99.90;;;;;;5090588;28;20934;-69
2023/03/04 07:29:13;;;;;;;6.35;2.58;;;6.30;99.90;;;;;;5073498;28;20204;-68
2023/03/04 07:31:41;;;;;;;11.40;2.75;;;6.30;99.90;;;;;;5091902;28;20251;-69
2023/03/04 07:34:12;;;;;;;6.65;2.30;;;6.30;99.90;;;;;;5090832;28;20203;-69
2023/03/04 07:36:40;;;;;;;3.20;1.95;;;6.30;99.90;;;;;;5091082;28;20156;-69
2023/03/04 07:39:06;;;;;;;3.35;2.05;;;6.30;99.90;;;;;;5091814;28;20195;-69
2023/03/04 07:41:36;;;;;;;4.03;2.38;;;6.30;99.90;;;;;;5090063;28;20180;-68
2023/03/04 07:44:03;;;;;;;5.20;2.50;;;6.30;99.90;;;;;;5091424;28;20244;-69
2023/03/04 07:46:29;;;;;;;5.65;2.58;;;6.30;99.90;;;;;;5091764;28;20183;-69
2023/03/04 07:48:56;;;;;;;10.23;3.20;;;6.30;99.90;;;;;;5070300;28;20282;-69
2023/03/04 07:51:26;;;;;;;4.17;2.23;;;6.30;99.90;;;;;;5053540;28;20630;-69
2023/03/04 07:54:05;;;;;;;4.93;2.30;;;6.30;99.90;;;;;;5089285;28;20438;-69
2023/03/04 07:56:35;;;;;;;5.38;2.42;;;6.30;99.90;;;;;;5090301;28;20213;-69
2023/03/04 07:59:01;;;;;;;4.95;1.92;;;6.30;99.90;;;;;;5090420;28;20226;-69
2023/03/04 08:01:27;;;;;;;6.80;2.30;;;6.30;99.90;;;;;;5070229;28;20666;-69
2023/03/04 08:03:58;;;;;;;2.72;2.03;;;6.40;99.90;;;;;;5065088;28;20547;-68
2023/03/04 08:06:28;;;;;;;5.20;2.13;;;6.30;99.90;;;;;;5090207;28;20185;-69
2023/03/04 08:09:02;;;;;;;4.75;2.30;;;6.30;99.90;;;;;;5090207;28;20547;-69
2023/03/04 08:11:30;;;;;;;7.25;2.17;;;6.30;99.90;;;;;;5055079;28;20220;-68
2023/03/04 08:13:59;;;;;;;5.40;3.20;;;6.40;99.90;;;;;;5090562;28;20257;-69
2023/03/04 08:16:25;;;;;;;7.10;2.60;;;6.30;99.90;;;;;;5091428;28;20493;-69
2023/03/04 08:18:56;;;;;;;8.48;2.95;;;6.30;99.90;;;;;;5072524;28;20200;-69
2023/03/04 08:21:29;;;;;;;4.97;2.28;;;6.30;99.90;;;;;;5091225;28;20684;-68
2023/03/04 08:23:58;;;;;;;4.80;2.28;;;6.40;99.90;;;;;;5077313;28;20176;-69
2023/03/04 08:26:28;;;;;;;5.18;2.65;;;6.40;99.90;;;;;;5088101;28;20185;-69
2023/03/04 08:28:59;;;;;;;4.40;2.20;;;6.40;99.90;;;;;;5089809;28;20243;-69
2023/03/04 08:31:30;;;;;;;6.57;3.10;;;6.40;99.90;;;;;;5073287;28;20996;-71
2023/03/04 08:33:58;;;;;;;6.28;2.33;;;6.40;99.90;;;;;;5073596;28;20187;-69
2023/03/04 08:36:24;;;;;;;5.07;2.35;;;6.40;99.90;;;;;;5070266;28;20176;-69
2023/03/04 08:38:53;;;;;;;5.73;2.13;;;6.40;99.90;;;;;;5071991;28;20541;-69
2023/03/04 08:41:19;;;;;;;3.60;2.63;;;6.40;99.90;;;;;;5086274;28;20435;-68
2023/03/04 08:43:47;;;;;;;5.65;2.83;;;6.40;99.90;;;;;;5090639;28;20504;-69
2023/03/04 08:46:15;;;;;;;7.93;2.75;;;6.40;99.90;;;;;;5089451;28;20193;-69
2023/03/04 08:48:41;;;;;;;4.53;2.53;;;6.40;99.90;;;;;;5089506;28;20207;-69
2023/03/04 08:51:13;;;;;;;8.63;2.95;;;6.40;99.90;;;;;;5089211;28;20454;-69
2023/03/04 08:53:44;;;;;;;6.75;2.80;;;6.40;99.90;;;;;;5089244;28;20271;-68
2023/03/04 08:56:13;;;;;;;5.80;2.30;;;6.40;99.90;;;;;;5069409;28;20264;-68
2023/03/04 08:58:42;;;;;;;5.28;3.35;;;6.40;99.90;;;;;;5070703;28;20450;-69
2023/03/04 09:01:10;;;;;;;3.97;2.33;;;6.50;99.90;;;;;;5082838;28;20192;-68
2023/03/04 09:03:43;;;;;;;4.35;2.67;;;6.50;99.90;;;;;;5090809;28;20169;-71
2023/03/04 09:06:14;;;;;;;3.00;2.00;;;6.50;99.90;;;;;;5089649;28;20170;-68
2023/03/04 09:08:40;;;;;;;4.90;2.40;;;6.50;99.90;;;;;;5087931;28;20786;-68
2023/03/04 09:11:06;;;;;;;5.60;2.10;;;6.50;99.90;;;;;;5089355;28;20199;-69
2023/03/04 09:13:32;;;;;;;3.05;2.13;;;6.50;99.90;;;;;;5068661;28;20170;-69
2023/03/04 09:16:13;;;;;;;5.63;2.08;;;6.50;99.90;;;;;;5069856;28;20161;-69
2023/03/04 09:18:40;;;;;;;3.88;2.05;;;6.50;99.90;;;;;;5085502;28;20236;-68
2023/03/04 09:21:07;;;;;;;3.78;2.38;;;6.50;99.90;;;;;;5089285;28;20248;-68
2023/03/04 09:23:34;;;;;;;4.80;2.60;;;6.50;99.90;;;;;;5089247;28;20188;-69
2023/03/04 09:26:24;;;;;;;3.57;2.13;;;6.50;99.90;;;;;;5051252;28;20225;-68
2023/03/04 09:28:56;;;;;;;8.40;2.63;;;6.50;99.90;;;;;;5088759;28;20458;-69
2023/03/04 09:31:22;;;;;;;4.55;2.90;;;6.50;99.90;;;;;;5085607;28;20680;-68
2023/03/04 09:33:49;;;;;;;5.85;3.00;;;6.50;99.90;;;;;;5073285;28;20641;-68
2023/03/04 09:36:16;;;;;;;5.67;3.20;;;6.60;99.90;;;;;;5090650;28;20175;-68
2023/03/04 09:38:47;;;;;;;6.03;2.80;;;6.60;99.90;;;;;;5076625;28;20577;-69
2023/03/04 09:41:19;;;;;;;6.60;2.55;;;6.60;99.90;;;;;;5094232;28;20233;-69
2023/03/04 09:43:47;;;;;;;5.10;2.63;;;6.60;99.90;;;;;;5072205;28;20661;-69
2023/03/04 09:46:38;;;;;;;3.17;2.42;;;6.60;99.90;;;;;;5074180;28;20783;-69
2023/03/04 09:49:04;;;;;;;2.97;2.50;;;6.60;99.90;;;;;;5092595;28;20204;-68
2023/03/04 09:51:50;;;;;;;3.15;2.28;;;6.60;99.90;;;;;;5093083;28;20288;-69
2023/03/04 09:54:37;;;;;;;3.05;2.20;;;6.70;99.90;;;;;;5055684;28;20191;-70
2023/03/04 09:57:27;;;;;;;5.25;2.35;;;6.70;99.90;;;;;;5084628;28;20188;-68
2023/03/04 10:00:18;;;;;;;4.00;2.00;;;6.70;99.90;;;;;;5050466;28;20207;-70
2023/03/04 10:03:09;;;;;;;3.30;2.08;;;6.70;99.90;;;;;;5076257;28;20172;-69
2023/03/04 10:05:45;;;;;;;4.70;2.08;;;6.70;99.90;;;;;;5093539;28;20169;-70
2023/03/04 10:08:26;;;;;;;4.30;2.22;;;6.70;99.90;;;;;;5076030;28;20207;-69
2023/03/04 10:10:58;;;;;;;5.10;2.28;;;6.70;99.90;;;;;;5094159;28;20202;-69
2023/03/04 10:13:55;;;;;;;3.30;1.98;;;6.70;99.90;;;;;;5093227;28;20169;-69
2023/03/04 10:16:25;;;;;;;2.88;2.20;;;6.70;99.90;;;;;;5094796;28;20185;-70
2023/03/04 10:19:00;;;;;;;3.93;2.60;;;6.80;99.90;;;;;;5091031;28;20200;-69
2023/03/04 10:21:34;;;;;;;3.70;2.03;;;6.80;99.90;;;;;;5089143;28;20448;-71
2023/03/04 10:24:16;;;;;;;7.10;1.92;;;6.80;99.90;;;;;;5092175;28;20450;-68
2023/03/04 10:26:50;;;;;;;4.72;2.00;;;6.80;99.90;;;;;;5085071;28;20225;-69
2023/03/04 10:29:23;;;;;;;4.90;2.30;;;6.80;99.90;;;;;;5058596;28;20701;-69
2023/03/04 10:31:49;;;;;;;4.60;2.47;;;6.80;99.90;;;;;;5093420;28;20612;-69
2023/03/04 10:34:17;;;;;;;2.63;2.00;;;6.80;99.90;;;;;;5091848;28;20208;-69
2023/03/04 10:36:49;;;;;;;6.25;2.20;;;6.80;99.90;;;;;;5090179;28;20470;-67
2023/03/04 10:39:42;;;;;;;4.43;2.00;;;6.90;99.90;;;;;;5086348;28;20200;-68
2023/03/04 10:42:14;;;;;;;3.33;2.30;;;6.90;99.90;;;;;;5060526;28;20670;-69
2023/03/04 10:44:52;;;;;;;6.05;2.03;;;6.90;99.90;;;;;;5092836;28;20431;-71
2023/03/04 10:47:18;;;;;;;4.63;3.28;;;6.90;99.90;;;;;;5059800;28;20415;-70
2023/03/04 10:50:20;;;;;;;7.90;2.27;;;6.90;99.90;;;;;;5091159;28;20208;-70
2023/03/04 10:52:54;;;;;;;11.43;2.28;;;7.00;99.90;;;;;;5074840;28;20423;-72
2023/03/04 10:55:40;;;;;;;8.50;2.00;;;7.00;99.90;;;;;;5065086;28;20660;-73
2023/03/04 10:58:16;;;;;;;5.60;2.37;;;7.10;99.90;;;;;;5092538;28;20478;-73
2023/03/04 11:01:13;;;;;;;47.13;23.30;;;7.10;99.90;;;;;;5073034;28;20423;-73
2023/03/04 11:03:47;;;;;;;33.80;15.20;;;7.20;99.90;;;;;;5061627;28;20519;-73
2023/03/04 11:06:21;;;;;;;83.87;51.57;;;7.30;99.90;;;;;;5075029;28;20193;-74
2023/03/04 11:08:55;;;;;;;31.67;16.00;;;7.40;99.90;;;;;;5075821;28;20960;-75
2023/03/04 11:11:22;;;;;;;17.73;9.40;;;7.50;99.90;;;;;;5057975;28;20860;-72
2023/03/04 11:14:00;;;;;;;12.67;4.27;;;7.60;99.90;;;;;;5093051;28;20667;-72
2023/03/04 11:16:31;;;;;;;6.53;2.20;;;7.60;99.90;;;;;;5093237;28;21049;-71
2023/03/04 11:19:13;;;;;;;8.00;3.43;;;7.60;99.90;;;;;;5076459;28;20193;-71
2023/03/04 11:21:41;;;;;;;4.93;2.40;;;7.60;99.90;;;;;;5093536;28;20981;-69
2023/03/04 11:24:26;;;;;;;7.13;2.60;;;7.60;99.90;;;;;;5083960;28;20447;-72
2023/03/04 11:27:25;;;;;;;3.38;2.42;;;7.70;99.90;;;;;;5079726;28;20453;-72
2023/03/04 11:30:27;;;;;;;6.83;2.93;;;7.70;99.90;;;;;;5074390;28;20195;-72
2023/03/04 11:33:23;;;;;;;14.63;3.70;;;7.80;99.90;;;;;;5084133;28;20487;-71
2023/03/04 11:36:13;;;;;;;10.07;4.83;;;7.80;99.90;;;;;;5075807;28;20426;-71
2023/03/04 11:38:52;;;;;;;35.37;7.80;;;7.90;99.90;;;;;;5092616;28;20886;-74
2023/03/04 11:41:48;;;;;;;13.60;5.37;;;8.00;99.90;;;;;;5092903;28;20428;-72
2023/03/04 11:44:14;;;;;;;23.30;12.33;;;8.00;99.90;;;;;;5005789;28;20590;-72
2023/03/04 11:46:54;;;;;;;22.27;11.70;;;8.10;99.90;;;;;;5056136;28;20425;-72
2023/03/04 11:49:44;;;;;;;28.30;8.93;;;8.10;99.90;;;;;;5078594;28;21010;-72
2023/03/04 11:52:13;;;;;;;14.63;7.30;;;8.10;99.90;;;;;;5075678;28;20500;-72
2023/03/04 11:55:10;;;;;;;16.20;7.10;;;8.10;99.90;;;;;;5058002;28;20416;-72
2023/03/04 11:58:00;;;;;;;10.20;5.37;;;8.20;99.90;;;;;;5076025;28;20472;-72
2023/03/04 12:00:51;;;;;;;42.97;25.30;;;8.20;99.90;;;;;;5093077;28;20447;-72
2023/03/04 12:03:23;;;;;;;40.07;25.93;;;8.20;99.90;;;;;;5079535;28;20949;-72
2023/03/04 12:06:12;;;;;;;25.50;15.33;;;8.20;99.90;;;;;;5075289;28;20462;-72
2023/03/04 12:09:01;;;;;;;27.80;17.07;;;8.20;99.90;;;;;;5032541;28;20455;-72
2023/03/04 12:12:03;;;;;;;25.87;16.80;;;8.30;99.90;;;;;;5071926;28;20986;-73
2023/03/04 12:18:22;;;;;;;22.97;14.73;;;8.20;99.90;;;;;;5027127;28;20470;-71
2023/03/04 12:21:07;;;;;;;18.03;13.00;;;8.20;99.90;;;;;;5006536;28;20437;-73
2023/03/04 12:23:41;;;;;;;19.97;12.37;;;8.20;99.90;;;;;;5015147;28;20497;-70
2023/03/04 12:26:22;;;;;;;18.73;12.07;;;8.20;99.90;;;;;;4982388;28;20481;-72
2023/03/04 12:29:33;;;;;;;18.83;11.63;;;8.20;99.90;;;;;;4981815;28;20498;-72
2023/03/04 12:32:24;;;;;;;13.67;9.83;;;8.20;99.90;;;;;;4996051;28;20984;-74
2023/03/04 12:35:09;;;;;;;12.80;8.93;;;8.10;99.90;;;;;;5014690;28;20961;-71
2023/03/04 12:37:46;;;;;;;11.30;9.13;;;8.10;99.90;;;;;;5030979;28;20444;-72
2023/03/04 12:40:50;;;;;;;10.60;7.93;;;8.10;99.90;;;;;;5014047;28;20421;-72
2023/03/04 12:43:25;;;;;;;10.10;7.67;;;8.10;99.90;;;;;;5014295;28;20456;-72
2023/03/04 12:46:15;;;;;;;10.33;7.60;;;8.10;99.90;;;;;;4997723;28;20420;-72
2023/03/04 12:48:59;;;;;;;11.57;7.43;;;8.10;99.90;;;;;;5003986;28;20520;-72
2023/03/04 12:51:53;;;;;;;9.43;6.80;;;8.10;99.90;;;;;;5013229;28;20939;-71
2023/03/04 12:54:25;;;;;;;8.90;6.40;;;8.10;99.90;;;;;;5013334;28;20526;-72
2023/03/04 12:56:56;;;;;;;9.23;6.00;;;8.10;99.90;;;;;;5014120;28;20484;-72
2023/03/04 12:59:27;;;;;;;8.50;5.97;;;8.10;99.90;;;;;;5013727;28;20544;-72
2023/03/04 13:02:11;;;;;;;9.00;6.17;;;8.10;99.90;;;;;;5012926;28;20462;-72
2023/03/04 13:04:55;;;;;;;6.23;4.60;;;8.10;99.90;;;;;;5031824;28;20438;-72
2023/03/04 13:07:47;;;;;;;6.57;4.40;;;8.10;99.90;;;;;;5000820;28;20522;-71
2023/03/04 13:10:18;;;;;;;7.90;4.80;;;8.10;99.90;;;;;;4999998;28;20454;-71
2023/03/04 13:12:56;;;;;;;7.00;4.70;;;8.10;99.90;;;;;;5014257;28;20473;-71
2023/03/04 13:15:26;;;;;;;5.50;4.13;;;8.10;99.90;;;;;;5033133;28;20440;-71
2023/03/04 13:17:56;;;;;;;5.90;4.50;;;8.10;99.90;;;;;;5033261;28;20459;-71
2023/03/04 13:20:37;;;;;;;5.63;4.53;;;8.10;99.90;;;;;;5000841;28;20425;-72